WetterOnline ( https://www.wetteronline.de )

Wetter aktuell Boizenburg

Aktuelles Wetter: Boizenburg (46m)

6-stündlich | Neueste Meldungen
Ortszeit Temperatur Wetter
Mo, 28.11. 7:00 4.1° C bedeckt
Mo, 28.11. 1:00 4.8° C wolkig
So, 27.11. 19:00 4.4° C bedeckt
So, 27.11. 13:00 2.8° C Nebel
So, 27.11. 7:00 1.9° C Nebel
So, 27.11. 1:00 5.3° C leichter Regen
Sa, 26.11. 19:00 6.5° C bedeckt
Sa, 26.11. 13:00 6.8° C bedeckt
Ortszeit Temperatur Wetter
Mo, 28.11. 12:30 4.4° C bedeckt
Mo, 28.11. 12:20 4.4° C bedeckt
Mo, 28.11. 12:10 4.4° C bedeckt
Mo, 28.11. 12:00 4.3° C wolkig
Mo, 28.11. 11:50 4.3° C wolkig
Mo, 28.11. 11:40 4.3° C bedeckt
Mo, 28.11. 11:30 4.2° C bedeckt
Mo, 28.11. 11:00 4.0° C bewölkt
Mo, 28.11. 10:30 4.1° C bedeckt
Mo, 28.11. 10:00 4.1° C bedeckt
Mo, 28.11. 9:30 4.0° C bedeckt
Ortszeit Relative Feuchte Sichtweite
Mo, 28.11. 7:00 84% 24 km
Mo, 28.11. 1:00 85% 30 km
So, 27.11. 19:00 92% 17 km
So, 27.11. 13:00 99% 0.5 km
So, 27.11. 7:00 98% 0.8 km
So, 27.11. 1:00 97% 2.1 km
Sa, 26.11. 19:00 96% 6 km
Sa, 26.11. 13:00 96% 6 km
Ortszeit Relative Feuchte Sichtweite
Mo, 28.11. 12:30 81% 30 km
Mo, 28.11. 12:20 81% -
Mo, 28.11. 12:10 81% -
Mo, 28.11. 12:00 81% 29 km
Mo, 28.11. 11:50 81% -
Mo, 28.11. 11:40 82% -
Mo, 28.11. 11:30 81% 30 km
Mo, 28.11. 11:00 83% 27 km
Mo, 28.11. 10:30 81% 29 km
Mo, 28.11. 10:00 83% 28 km
Mo, 28.11. 9:30 84% 22 km
Ortszeit Niederschlagsmenge Niederschlagsart
Mo, 28.11. 7:00 0.1 l/m2 in 12 Std. Regen
Mo, 28.11. 1:00 0.0 l/m2 in 6 Std. -
So, 27.11. 19:00 0.0 l/m2 in 12 Std. -
So, 27.11. 13:00 0.0 l/m2 in 6 Std. -
So, 27.11. 7:00 0.1 l/m2 in 12 Std. Regen
So, 27.11. 1:00 0.1 l/m2 in 6 Std. Regen
Sa, 26.11. 19:00 0.1 l/m2 in 12 Std. -
Sa, 26.11. 13:00 0.1 l/m2 in 6 Std. Regen
Ortszeit Niederschlagsmenge Niederschlagsart
Mo, 28.11. 12:30 0.0 l/m2 in 1 Std. -
Mo, 28.11. 12:20 keine Meldung -
Mo, 28.11. 12:10 keine Meldung -
Mo, 28.11. 12:00 0.0 l/m2 in 1 Std. -
Mo, 28.11. 11:50 keine Meldung -
Mo, 28.11. 11:40 keine Meldung -
Mo, 28.11. 11:30 0.0 l/m2 in 1 Std. -
Mo, 28.11. 11:00 0.0 l/m2 in 1 Std. -
Mo, 28.11. 10:30 0.0 l/m2 in 1 Std. -
Mo, 28.11. 10:00 0.0 l/m2 in 1 Std. -
Mo, 28.11. 9:30 0.0 l/m2 in 1 Std. -
Ortszeit Stärke Spitze Richtung
km/h Bft. km/h Grad Sektor
Mo, 28.11. 7:00 25 4 43 120° SO
Mo, 28.11. 1:00 19 3 31 120° SO
So, 27.11. 19:00 18 3 25 130° SO
So, 27.11. 13:00 13 3 24 130° SO
So, 27.11. 7:00 7 2 18 150° SO
So, 27.11. 1:00 6 1 15 140° SO
Sa, 26.11. 19:00 4 1 22 210° SW
Sa, 26.11. 13:00 11 2 22 240° SW
Ortszeit Stärke Spitze Richtung
km/h Bft. km/h Grad Sektor
Mo, 28.11. 12:30 22 4 36 120° SO
Mo, 28.11. 12:20 22 4 - 120° SO
Mo, 28.11. 12:10 22 4 - 120° SO
Mo, 28.11. 12:00 18 3 32 120° SO
Mo, 28.11. 11:50 18 3 - 120° SO
Mo, 28.11. 11:40 20 4 - 120° SO
Mo, 28.11. 11:30 22 4 32 120° SO
Mo, 28.11. 11:00 19 3 37 110° O
Mo, 28.11. 10:30 22 4 33 120° SO
Mo, 28.11. 10:00 20 4 28 120° SO
Mo, 28.11. 9:30 18 3 29 120° SO
Ortszeit Untergrenze Bedeckung Gattung
total tief tief mittel hoch
Mo, 28.11. 7:00 1800 m 8/8 8/8 - - -
Mo, 28.11. 1:00 1500 m 7/8 2/8 - - -
So, 27.11. 19:00 3000 m 8/8 8/8 - - -
So, 27.11. 13:00 <30 m 8/8 0/8 - - -
So, 27.11. 7:00 <30 m 8/8 0/8 - - -
So, 27.11. 1:00 660 m 8/8 8/8 - - -
Sa, 26.11. 19:00 120 m 8/8 8/8 - - -
Sa, 26.11. 13:00 90 m 8/8 8/8 - - -
Ortszeit Bedeckungsgrad in Achtel und Wolkenuntergrenze
Mo, 28.11. 12:30 1(1500m) 8(2700m) 8(3300m)
Mo, 28.11. 12:20 1(1500m) 8(2700m) 8(3300m)
Mo, 28.11. 12:10 8
Mo, 28.11. 12:00 1(2400m) 8(3000m)
Mo, 28.11. 11:50 1(2400m) 8(3000m)
Mo, 28.11. 11:40 8
Mo, 28.11. 11:30 8(2700m) 8(4800m)
Mo, 28.11. 11:00 1(1800m) 7(2400m)
Mo, 28.11. 10:30 8(2700m) 8(3300m) 8(5100m)
Mo, 28.11. 10:00 8(2700m)
Mo, 28.11. 9:30 8(2400m)
Ortszeit Luftdruck NN (hPa) Tendenz (hPa in 3 Std.)
Mo, 28.11. 7:00 1014 - 1,0
Mo, 28.11. 1:00 1017 - 1,3
So, 27.11. 19:00 1020 - 1,5
So, 27.11. 13:00 1024 - 1,5
So, 27.11. 7:00 1026 - 0,8
So, 27.11. 1:00 1028 - 0,3
Sa, 26.11. 19:00 1029 + 0,5
Sa, 26.11. 13:00 1029 + 0,8
Ortszeit Luftdruck NN (hPa) Tendenz (hPa in 3 Std.)
Mo, 28.11. 12:30 1014 0,0
Mo, 28.11. 12:20 1014 keine Meldung
Mo, 28.11. 12:10 1014 keine Meldung
Mo, 28.11. 12:00 1014 - 0,2
Mo, 28.11. 11:50 1014 keine Meldung
Mo, 28.11. 11:40 1014 keine Meldung
Mo, 28.11. 11:30 1014 + 0,3
Mo, 28.11. 11:00 1014 + 0,3
Mo, 28.11. 10:30 1015 + 0,2
Mo, 28.11. 10:00 1014 + 0,3
Mo, 28.11. 9:30 1014 + 0,1
Ortszeit Schneehöhe (cm)
Mo, 28.11. 7:00 0
Mo, 28.11. 1:00 0
So, 27.11. 19:00 0
So, 27.11. 13:00 0
So, 27.11. 7:00 0
So, 27.11. 1:00 0
Sa, 26.11. 19:00 0
Sa, 26.11. 13:00 0
Ortszeit Schneehöhe (cm)
Mo, 28.11. 12:30 0
Mo, 28.11. 12:20 0
Mo, 28.11. 12:10 0
Mo, 28.11. 12:00 0
Mo, 28.11. 11:50 0
Mo, 28.11. 11:40 0
Mo, 28.11. 11:30 0
Mo, 28.11. 11:00 0
Mo, 28.11. 10:30 0
Mo, 28.11. 10:00 0
Mo, 28.11. 9:30 0
Link zu dieser Seite / Seite empfehlen

Das Wetter in ...